^^
Meteo Knjazevac Station Historical Data
Daily Summary for February 9, 2022 Units:  Both    English   Metric
Daily Weekly Monthly Yearly Custom
  High: Low: Average:
Temperature: 65.1 °F /  18.4 °C 34.9 °F /  1.6 °C 47.2 °F /  8.4 °C
Dew Point: 56.2 °F /  13.4 °C 34.6 °F /  1.4 °C 44.8 °F /  7.1 °C
Humidity: 99% 72% 92%
Wind Speed: 8.4mph /  13.5km/h - 3.4mph /  5.5km/h
Wind Gust: 11mph /  17.7km/h - -
Wind- - SW
Pressure: 30.26 in /  1024.6 hPa 30.18 in /  1021.9 hPa -
Precipitation: 0.00 in /  0 mm    
Historical Graphs
 
 
Tabular Data for February 9, 2022
Time Temperature Dew Point Pressure Wind Wind Speed Wind Gust Humidity Rainfall Rate (Hourly) solar Conditions
00:04 41.8 °F /  5.4 °C 41.6 °F /  5.3 °C 30.23in /  1023.6hPa West 2.1mph /  3.4km/h 4mph /  6.4km/h 99% 0.00in /  0mm 0 W/m2
00:09 41.7 °F /  5.4 °C 41.5 °F /  5.3 °C 30.23in /  1023.6hPa West 2.8mph /  4.5km/h 2mph /  3.2km/h 99% 0.00in /  0mm 0 W/m2
00:14 41.5 °F /  5.3 °C 41.3 °F /  5.2 °C 30.23in /  1023.6hPa West 2.5mph /  4km/h 3mph /  4.8km/h 99% 0.00in /  0mm 0 W/m2
00:19 41.5 °F /  5.3 °C 41.2 °F /  5.1 °C 30.23in /  1023.6hPa WNW 2.6mph /  4.2km/h 3mph /  4.8km/h 99% 0.00in /  0mm 0 W/m2
00:24 41.4 °F /  5.2 °C 41.1 °F /  5.1 °C 30.23in /  1023.6hPa WNW 2.2mph /  3.5km/h 3mph /  4.8km/h 99% 0.00in /  0mm 0 W/m2
00:29 41.1 °F /  5.1 °C 40.8 °F /  4.9 °C 30.23in /  1023.6hPa West 3.2mph /  5.1km/h 2.5mph /  4km/h 99% 0.00in /  0mm 0 W/m2
00:34 40.9 °F /  4.9 °C 40.6 °F /  4.8 °C 30.23in /  1023.6hPa West 3.5mph /  5.6km/h 4mph /  6.4km/h 99% 0.00in /  0mm 0 W/m2
00:39 40.8 °F /  4.9 °C 40.6 °F /  4.8 °C 30.23in /  1023.6hPa WNW 3.4mph /  5.5km/h 4mph /  6.4km/h 99% 0.00in /  0mm 0 W/m2
00:44 40.8 °F /  4.9 °C 40.6 °F /  4.8 °C 30.23in /  1023.6hPa West 3.2mph /  5.1km/h 4mph /  6.4km/h 99% 0.00in /  0mm 0 W/m2
00:49 40.7 °F /  4.8 °C 40.5 °F /  4.7 °C 30.23in /  1023.6hPa West 4.3mph /  6.9km/h 4mph /  6.4km/h 99% 0.00in /  0mm 0 W/m2
00:54 40.6 °F /  4.8 °C 40.3 °F /  4.6 °C 30.23in /  1023.6hPa West 4.8mph /  7.7km/h 5mph /  8km/h 99% 0.00in /  0mm 0 W/m2
00:59 40.6 °F /  4.8 °C 40.3 °F /  4.6 °C 30.23in /  1023.6hPa WNW 5.2mph /  8.4km/h 6mph /  9.7km/h 99% 0.00in /  0mm 0 W/m2
01:04 40.7 °F /  4.8 °C 40.5 °F /  4.7 °C 30.23in /  1023.6hPa WNW 4.5mph /  7.2km/h 6mph /  9.7km/h 99% 0.00in /  0mm 0 W/m2
01:09 40.7 °F /  4.8 °C 40.5 °F /  4.7 °C 30.23in /  1023.6hPa West 3.2mph /  5.1km/h 5mph /  8km/h 99% 0.00in /  0mm 0 W/m2
01:14 40.4 °F /  4.7 °C 40.1 °F /  4.5 °C 30.23in /  1023.6hPa West 3mph /  4.8km/h 3mph /  4.8km/h 99% 0.00in /  0mm 0 W/m2
01:19 40.2 °F /  4.6 °C 39.9 °F /  4.4 °C 30.23in /  1023.6hPa West 2.4mph /  3.9km/h 3mph /  4.8km/h 99% 0.00in /  0mm 0 W/m2
01:24 40 °F /  4.4 °C 39.7 °F /  4.3 °C 30.23in /  1023.6hPa West 2.2mph /  3.5km/h 2.2mph /  3.5km/h 99% 0.00in /  0mm 0 W/m2
01:29 39.7 °F /  4.3 °C 39.4 °F /  4.1 °C 30.23in /  1023.6hPa West 3.1mph /  5km/h 3.4mph /  5.5km/h 99% 0.00in /  0mm 0 W/m2
01:34 39.4 °F /  4.1 °C 39.1 °F /  3.9 °C 30.23in /  1023.6hPa West 3.6mph /  5.8km/h 4mph /  6.4km/h 99% 0.00in /  0mm 0 W/m2
01:39 39.2 °F /  4 °C 38.9 °F /  3.8 °C 30.23in /  1023.6hPa West 3.5mph /  5.6km/h 4mph /  6.4km/h 99% 0.00in /  0mm 0 W/m2
01:44 39.2 °F /  4 °C 38.9 °F /  3.8 °C 30.23in /  1023.6hPa West 3.1mph /  5km/h 4mph /  6.4km/h 99% 0.00in /  0mm 0 W/m2
01:49 39.2 °F /  4 °C 38.9 °F /  3.8 °C 30.23in /  1023.6hPa West 3mph /  4.8km/h 3mph /  4.8km/h 99% 0.00in /  0mm 0 W/m2
01:54 39.1 °F /  3.9 °C 38.9 °F /  3.8 °C 30.23in /  1023.6hPa West 3.2mph /  5.1km/h 3mph /  4.8km/h 99% 0.00in /  0mm 0 W/m2
01:59 39 °F /  3.9 °C 38.8 °F /  3.8 °C 30.23in /  1023.6hPa West 2.7mph /  4.3km/h 3mph /  4.8km/h 99% 0.00in /  0mm 0 W/m2
02:04 39 °F /  3.9 °C 38.8 °F /  3.8 °C 30.23in /  1023.6hPa West 3.4mph /  5.5km/h 3.1mph /  5km/h 99% 0.00in /  0mm 0 W/m2
02:09 38.9 °F /  3.8 °C 38.7 °F /  3.7 °C 30.23in /  1023.6hPa West 3.4mph /  5.5km/h 4mph /  6.4km/h 99% 0.00in /  0mm 0 W/m2
02:14 38.8 °F /  3.8 °C 38.6 °F /  3.7 °C 30.23in /  1023.6hPa West 3.1mph /  5km/h 4mph /  6.4km/h 99% 0.00in /  0mm 0 W/m2
02:19 38.7 °F /  3.7 °C 38.4 °F /  3.6 °C 30.23in /  1023.6hPa West 3mph /  4.8km/h 3mph /  4.8km/h 99% 0.00in /  0mm 0 W/m2
02:24 38.5 °F /  3.6 °C 38.2 °F /  3.4 °C 30.23in /  1023.6hPa West 2.8mph /  4.5km/h 3mph /  4.8km/h 99% 0.00in /  0mm 0 W/m2
02:29 38.5 °F /  3.6 °C 38.2 °F /  3.4 °C 30.23in /  1023.6hPa West 3mph /  4.8km/h 3mph /  4.8km/h 99% 0.00in /  0mm 0 W/m2
02:34 38.3 °F /  3.5 °C 38 °F /  3.3 °C 30.23in /  1023.6hPa West 3.3mph /  5.3km/h 3mph /  4.8km/h 99% 0.00in /  0mm 0 W/m2
02:39 38.2 °F /  3.4 °C 38 °F /  3.3 °C 30.23in /  1023.6hPa West 2.5mph /  4km/h 4mph /  6.4km/h 99% 0.00in /  0mm 0 W/m2
02:44 38.1 °F /  3.4 °C 37.9 °F /  3.3 °C 30.23in /  1023.6hPa West 2.5mph /  4km/h 3mph /  4.8km/h 99% 0.00in /  0mm 0 W/m2
02:49 38.1 °F /  3.4 °C 37.9 °F /  3.3 °C 30.23in /  1023.6hPa WNW 2.4mph /  3.9km/h 3mph /  4.8km/h 99% 0.00in /  0mm 0 W/m2
02:54 38.1 °F /  3.4 °C 37.9 °F /  3.3 °C 30.23in /  1023.6hPa WNW 2.2mph /  3.5km/h 3mph /  4.8km/h 99% 0.00in /  0mm 0 W/m2
02:59 38.1 °F /  3.4 °C 37.9 °F /  3.3 °C 30.23in /  1023.6hPa WNW 2mph /  3.2km/h 2mph /  3.2km/h 99% 0.00in /  0mm 0 W/m2
03:04 37.9 °F /  3.3 °C 37.7 °F /  3.2 °C 30.23in /  1023.6hPa WNW 1.8mph /  2.9km/h 2mph /  3.2km/h 99% 0.00in /  0mm 0 W/m2
03:09 37.8 °F /  3.2 °C 37.6 °F /  3.1 °C 30.23in /  1023.6hPa NW 2mph /  3.2km/h 2mph /  3.2km/h 99% 0.00in /  0mm 0 W/m2
03:14 37.8 °F /  3.2 °C 37.5 °F /  3.1 °C 30.23in /  1023.6hPa WNW 2.1mph /  3.4km/h 2mph /  3.2km/h 99% 0.00in /  0mm 0 W/m2
03:19 37.6 °F /  3.1 °C 37.3 °F /  2.9 °C 30.23in /  1023.6hPa WNW 2.3mph /  3.7km/h 2mph /  3.2km/h 99% 0.00in /  0mm 0 W/m2
03:24 37.6 °F /  3.1 °C 37.3 °F /  2.9 °C 30.23in /  1023.6hPa WNW 3.4mph /  5.5km/h 3mph /  4.8km/h 99% 0.00in /  0mm 0 W/m2
03:29 37.6 °F /  3.1 °C 37.3 °F /  2.9 °C 30.23in /  1023.6hPa WNW 2.6mph /  4.2km/h 3mph /  4.8km/h 99% 0.00in /  0mm 0 W/m2
03:34 37.6 °F /  3.1 °C 37.3 °F /  2.9 °C 30.23in /  1023.6hPa West 3.5mph /  5.6km/h 3mph /  4.8km/h 99% 0.00in /  0mm 0 W/m2
03:39 37.4 °F /  3 °C 37.1 °F /  2.8 °C 30.23in /  1023.6hPa West 3.5mph /  5.6km/h 4mph /  6.4km/h 99% 0.00in /  0mm 0 W/m2
03:44 37.4 °F /  3 °C 37.1 °F /  2.8 °C 30.23in /  1023.6hPa WNW 2.7mph /  4.3km/h 4mph /  6.4km/h 99% 0.00in /  0mm 0 W/m2
03:49 37.4 °F /  3 °C 37.1 °F /  2.8 °C 30.23in /  1023.6hPa WNW 2mph /  3.2km/h 3mph /  4.8km/h 99% 0.00in /  0mm 0 W/m2
03:54 37.2 °F /  2.9 °C 37 °F /  2.8 °C 30.23in /  1023.6hPa WNW 0.2mph /  0.3km/h 2mph /  3.2km/h 99% 0.00in /  0mm 0 W/m2
03:59 37 °F /  2.8 °C 36.7 °F /  2.6 °C 30.23in /  1023.6hPa Calm     99% 0.00in /  0mm 0 W/m2
04:04 36.8 °F /  2.7 °C 36.5 °F /  2.5 °C 30.23in /  1023.6hPa West 0.9mph /  1.4km/h 1.6mph /  2.6km/h 99% 0.00in /  0mm 0 W/m2
04:09 36.6 °F /  2.6 °C 36.3 °F /  2.4 °C 30.23in /  1023.6hPa West 0.9mph /  1.4km/h 2mph /  3.2km/h 99% 0.00in /  0mm 0 W/m2
04:14 36.5 °F /  2.5 °C 36.2 °F /  2.3 °C 30.23in /  1023.6hPa West 2.2mph /  3.5km/h 2mph /  3.2km/h 99% 0.00in /  0mm 0 W/m2
04:19 36.4 °F /  2.4 °C 36.1 °F /  2.3 °C 30.23in /  1023.6hPa West 3.1mph /  5km/h 3mph /  4.8km/h 99% 0.00in /  0mm 0 W/m2
04:24 36.3 °F /  2.4 °C 36.1 °F /  2.3 °C 30.23in /  1023.6hPa West 3.8mph /  6.1km/h 4mph /  6.4km/h 99% 0.00in /  0mm 0 W/m2
04:29 36.5 °F /  2.5 °C 36.2 °F /  2.3 °C 30.23in /  1023.6hPa West 3.4mph /  5.5km/h 5mph /  8km/h 99% 0.00in /  0mm 0 W/m2
04:34 36.6 °F /  2.6 °C 36.3 °F /  2.4 °C 30.23in /  1023.6hPa West 3.9mph /  6.3km/h 4mph /  6.4km/h 99% 0.00in /  0mm 0 W/m2
04:39 36.7 °F /  2.6 °C 36.4 °F /  2.4 °C 30.24in /  1023.9hPa West 2.9mph /  4.7km/h 5mph /  8km/h 99% 0.00in /  0mm 0 W/m2
04:44 36.5 °F /  2.5 °C 36.2 °F /  2.3 °C 30.24in /  1023.9hPa West 2.2mph /  3.5km/h 3mph /  4.8km/h 99% 0.00in /  0mm 0 W/m2
04:49 36.3 °F /  2.4 °C 36.1 °F /  2.3 °C 30.24in /  1023.9hPa West 1.8mph /  2.9km/h 2mph /  3.2km/h 99% 0.00in /  0mm 0 W/m2
04:54 36.1 °F /  2.3 °C 35.9 °F /  2.2 °C 30.24in /  1023.9hPa WNW 1.8mph /  2.9km/h 2mph /  3.2km/h 99% 0.00in /  0mm 0 W/m2
04:59 36 °F /  2.2 °C 35.7 °F /  2.1 °C 30.24in /  1023.9hPa NW 1.8mph /  2.9km/h 2mph /  3.2km/h 99% 0.00in /  0mm 0 W/m2
05:04 36 °F /  2.2 °C 35.7 °F /  2.1 °C 30.24in /  1023.9hPa NNW 2.1mph /  3.4km/h 2mph /  3.2km/h 99% 0.00in /  0mm 0 W/m2
05:09 36 °F /  2.2 °C 35.7 °F /  2.1 °C 30.24in /  1023.9hPa NNW 2.1mph /  3.4km/h 2mph /  3.2km/h 99% 0.00in /  0mm 0 W/m2
05:14 36.1 °F /  2.3 °C 35.9 °F /  2.2 °C 30.24in /  1023.9hPa NW 1.7mph /  2.7km/h 2mph /  3.2km/h 99% 0.00in /  0mm 0 W/m2
05:19 36.1 °F /  2.3 °C 35.8 °F /  2.1 °C 30.24in /  1023.9hPa NW 2.2mph /  3.5km/h 2mph /  3.2km/h 99% 0.00in /  0mm 0 W/m2
05:24 36 °F /  2.2 °C 35.7 °F /  2.1 °C 30.24in /  1023.9hPa NW 0.9mph /  1.4km/h 2mph /  3.2km/h 99% 0.00in /  0mm 0 W/m2
05:29 35.8 °F /  2.1 °C 35.5 °F /  1.9 °C 30.24in /  1023.9hPa NNW 1mph /  1.6km/h 2mph /  3.2km/h 99% 0.00in /  0mm 0 W/m2
05:34 35.8 °F /  2.1 °C 35.5 °F /  1.9 °C 30.24in /  1023.9hPa NNW 2.2mph /  3.5km/h 2mph /  3.2km/h 99% 0.00in /  0mm 0 W/m2
05:39 35.8 °F /  2.1 °C 35.5 °F /  1.9 °C 30.24in /  1023.9hPa WNW 2.2mph /  3.5km/h 2mph /  3.2km/h 99% 0.00in /  0mm 0 W/m2
05:44 35.8 °F /  2.1 °C 35.5 °F /  1.9 °C 30.24in /  1023.9hPa WNW 2.2mph /  3.5km/h 2mph /  3.2km/h 99% 0.00in /  0mm 0 W/m2
05:49 35.8 °F /  2.1 °C 35.5 °F /  1.9 °C 30.24in /  1023.9hPa NW 1.7mph /  2.7km/h 2mph /  3.2km/h 99% 0.00in /  0mm 0 W/m2
05:54 35.8 °F /  2.1 °C 35.5 °F /  1.9 °C 30.24in /  1023.9hPa NW 1.9mph /  3.1km/h 2mph /  3.2km/h 99% 0.00in /  0mm 0 W/m2
05:59 35.7 °F /  2.1 °C 35.4 °F /  1.9 °C 30.24in /  1023.9hPa WNW 1.9mph /  3.1km/h 2mph /  3.2km/h 99% 0.00in /  0mm 0 W/m2
06:04 35.6 °F /  2 °C 35.3 °F /  1.8 °C 30.24in /  1023.9hPa NW 1.8mph /  2.9km/h 2mph /  3.2km/h 99% 0.00in /  0mm 0 W/m2
06:09 35.5 °F /  1.9 °C 35.2 °F /  1.8 °C 30.24in /  1023.9hPa WNW 2.9mph /  4.7km/h 3mph /  4.8km/h 99% 0.00in /  0mm 1 W/m2
06:14 35.4 °F /  1.9 °C 35.2 °F /  1.8 °C 30.24in /  1023.9hPa WNW 3.1mph /  5km/h 3mph /  4.8km/h 99% 0.00in /  0mm 3 W/m2
06:19 35.4 °F /  1.9 °C 35.2 °F /  1.8 °C 30.24in /  1023.9hPa West 2.3mph /  3.7km/h 3mph /  4.8km/h 99% 0.00in /  0mm 5 W/m2
06:24 35.3 °F /  1.8 °C 35.1 °F /  1.7 °C 30.24in /  1023.9hPa West 2.1mph /  3.4km/h 3mph /  4.8km/h 99% 0.00in /  0mm 9 W/m2
06:29 35.2 °F /  1.8 °C 35 °F /  1.7 °C 30.25in /  1024.3hPa WNW 2mph /  3.2km/h 2mph /  3.2km/h 99% 0.00in /  0mm 13 W/m2
06:34 35.1 °F /  1.7 °C 34.9 °F /  1.6 °C 30.25in /  1024.3hPa WNW 1.9mph /  3.1km/h 2mph /  3.2km/h 99% 0.00in /  0mm 16 W/m2
06:39 34.9 °F /  1.6 °C 34.6 °F /  1.4 °C 30.25in /  1024.3hPa WNW 1.8mph /  2.9km/h 2.2mph /  3.5km/h 99% 0.00in /  0mm 21 W/m2
06:44 35 °F /  1.7 °C 34.7 °F /  1.5 °C 30.25in /  1024.3hPa WNW 3.5mph /  5.6km/h 3.1mph /  5km/h 99% 0.00in /  0mm 26 W/m2
06:49 35.1 °F /  1.7 °C 34.8 °F /  1.6 °C 30.25in /  1024.3hPa West 3.4mph /  5.5km/h 4mph /  6.4km/h 99% 0.00in /  0mm 33 W/m2
06:54 35.2 °F /  1.8 °C 35 °F /  1.7 °C 30.25in /  1024.3hPa West 3.1mph /  5km/h 4mph /  6.4km/h 99% 0.00in /  0mm 35 W/m2
06:59 35.3 °F /  1.8 °C 35.1 °F /  1.7 °C 30.25in /  1024.3hPa West 2.9mph /  4.7km/h 3mph /  4.8km/h 99% 0.00in /  0mm 40 W/m2
07:04 35.5 °F /  1.9 °C 35.2 °F /  1.8 °C 30.25in /  1024.3hPa WNW 2.1mph /  3.4km/h 3mph /  4.8km/h 99% 0.00in /  0mm 47 W/m2
07:09 35.8 °F /  2.1 °C 35.5 °F /  1.9 °C 30.25in /  1024.3hPa WNW 0.7mph /  1.1km/h 2mph /  3.2km/h 99% 0.00in /  0mm 59 W/m2
07:14 36 °F /  2.2 °C 35.7 °F /  2.1 °C 30.25in /  1024.3hPa WNW 1.8mph /  2.9km/h 2mph /  3.2km/h 99% 0.00in /  0mm 72 W/m2
07:19 36.2 °F /  2.3 °C 36 °F /  2.2 °C 30.25in /  1024.3hPa WNW 1.2mph /  1.9km/h 2mph /  3.2km/h 99% 0.00in /  0mm 72 W/m2
07:24 36.5 °F /  2.5 °C 36.2 °F /  2.3 °C 30.25in /  1024.3hPa NW 1mph /  1.6km/h 2mph /  3.2km/h 99% 0.00in /  0mm 83 W/m2
07:29 36.7 °F /  2.6 °C 36.4 °F /  2.4 °C 30.25in /  1024.3hPa NNW 0.5mph /  0.8km/h 1mph /  1.6km/h 99% 0.00in /  0mm 84 W/m2
07:34 37 °F /  2.8 °C 36.8 °F /  2.7 °C 30.25in /  1024.3hPa NNW 1.2mph /  1.9km/h 2mph /  3.2km/h 99% 0.00in /  0mm 98 W/m2
07:39 37.4 °F /  3 °C 37.1 °F /  2.8 °C 30.25in /  1024.3hPa NNW 1.3mph /  2.1km/h 2mph /  3.2km/h 99% 0.00in /  0mm 124 W/m2
07:44 37.7 °F /  3.2 °C 37.5 °F /  3.1 °C 30.25in /  1024.3hPa NW 2.2mph /  3.5km/h 2mph /  3.2km/h 99% 0.00in /  0mm 133 W/m2
07:49 38 °F /  3.3 °C 37.8 °F /  3.2 °C 30.26in /  1024.6hPa WNW 2.3mph /  3.7km/h 3mph /  4.8km/h 99% 0.00in /  0mm 149 W/m2
07:54 38.4 °F /  3.6 °C 38.1 °F /  3.4 °C 30.26in /  1024.6hPa WNW 2.6mph /  4.2km/h 3mph /  4.8km/h 99% 0.00in /  0mm 153 W/m2
07:59 38.6 °F /  3.7 °C 38.3 °F /  3.5 °C 30.25in /  1024.3hPa WNW 3.2mph /  5.1km/h 3mph /  4.8km/h 99% 0.00in /  0mm 166 W/m2
08:04 38.9 °F /  3.8 °C 38.7 °F /  3.7 °C 30.25in /  1024.3hPa West 2.3mph /  3.7km/h 3mph /  4.8km/h 99% 0.00in /  0mm 188 W/m2
08:09 39.3 °F /  4.1 °C 39.1 °F /  3.9 °C 30.25in /  1024.3hPa WNW 2mph /  3.2km/h 2mph /  3.2km/h 99% 0.00in /  0mm 205 W/m2
08:14 39.9 °F /  4.4 °C 39.7 °F /  4.3 °C 30.25in /  1024.3hPa NW 1.8mph /  2.9km/h 2mph /  3.2km/h 99% 0.00in /  0mm 202 W/m2
08:19 40.5 °F /  4.7 °C 40.2 °F /  4.6 °C 30.25in /  1024.3hPa NW 2.4mph /  3.9km/h 2mph /  3.2km/h 99% 0.00in /  0mm 207 W/m2
08:24 40.9 °F /  4.9 °C 40.6 °F /  4.8 °C 30.25in /  1024.3hPa WSW 2.8mph /  4.5km/h 3mph /  4.8km/h 99% 0.00in /  0mm 207 W/m2
08:29 41.2 °F /  5.1 °C 40.9 °F /  4.9 °C 30.25in /  1024.3hPa WSW 2.2mph /  3.5km/h 3mph /  4.8km/h 99% 0.00in /  0mm 211 W/m2
08:34 41.7 °F /  5.4 °C 41.4 °F /  5.2 °C 30.25in /  1024.3hPa WSW 2.2mph /  3.5km/h 2mph /  3.2km/h 99% 0.00in /  0mm 267 W/m2
08:39 42.4 °F /  5.8 °C 42.2 °F /  5.7 °C 30.25in /  1024.3hPa WSW 2.3mph /  3.7km/h 3mph /  4.8km/h 99% 0.00in /  0mm 275 W/m2
08:44 43.3 °F /  6.3 °C 43 °F /  6.1 °C 30.25in /  1024.3hPa SW 2mph /  3.2km/h 3mph /  4.8km/h 99% 0.00in /  0mm 294 W/m2
08:49 43.9 °F /  6.6 °C 43.6 °F /  6.4 °C 30.25in /  1024.3hPa SW 2.3mph /  3.7km/h 2mph /  3.2km/h 99% 0.00in /  0mm 294 W/m2
08:54 44.5 °F /  6.9 °C 44.2 °F /  6.8 °C 30.25in /  1024.3hPa SW 2.6mph /  4.2km/h 3mph /  4.8km/h 99% 0.00in /  0mm 310 W/m2
08:59 44.9 °F /  7.2 °C 44.6 °F /  7 °C 30.25in /  1024.3hPa WSW 2.2mph /  3.5km/h 3mph /  4.8km/h 99% 0.00in /  0mm 331 W/m2
09:04 45.2 °F /  7.3 °C 45 °F /  7.2 °C 30.25in /  1024.3hPa WSW 3mph /  4.8km/h 2mph /  3.2km/h 99% 0.00in /  0mm 339 W/m2
09:09 45.8 °F /  7.7 °C 45.5 °F /  7.5 °C 30.25in /  1024.3hPa WSW 2.5mph /  4km/h 3mph /  4.8km/h 99% 0.00in /  0mm 354 W/m2
09:14 46.1 °F /  7.8 °C 45.8 °F /  7.7 °C 30.25in /  1024.3hPa SW 2.3mph /  3.7km/h 2mph /  3.2km/h 98.6% 0.00in /  0mm 355 W/m2
09:19 46.3 °F /  7.9 °C 45.8 °F /  7.7 °C 30.25in /  1024.3hPa ESE 4.5mph /  7.2km/h 4mph /  6.4km/h 98% 0.00in /  0mm 362 W/m2
09:24 46.6 °F /  8.1 °C 45.6 °F /  7.6 °C 30.25in /  1024.3hPa NE 4mph /  6.4km/h 6mph /  9.7km/h 96.4% 0.00in /  0mm 378 W/m2
09:29 47.2 °F /  8.4 °C 46.1 °F /  7.8 °C 30.25in /  1024.3hPa NNE 5.3mph /  8.5km/h 5mph /  8km/h 96% 0.00in /  0mm 395 W/m2
09:34 47.8 °F /  8.8 °C 46.7 °F /  8.2 °C 30.25in /  1024.3hPa NNE 5mph /  8km/h 6mph /  9.7km/h 96% 0.00in /  0mm 406 W/m2
09:39 48.5 °F /  9.2 °C 47.3 °F /  8.5 °C 30.25in /  1024.3hPa NNE 5.4mph /  8.7km/h 6mph /  9.7km/h 95.6% 0.00in /  0mm 419 W/m2
09:44 48.9 °F /  9.4 °C 47.6 °F /  8.7 °C 30.25in /  1024.3hPa NNE 6.7mph /  10.8km/h 6mph /  9.7km/h 95% 0.00in /  0mm 430 W/m2
09:49 49.5 °F /  9.7 °C 47.8 °F /  8.8 °C 30.25in /  1024.3hPa NNE 5.8mph /  9.3km/h 9mph /  14.5km/h 94.2% 0.00in /  0mm 436 W/m2
09:54 49.6 °F /  9.8 °C 47.8 °F /  8.8 °C 30.25in /  1024.3hPa NNE 6.8mph /  10.9km/h 7mph /  11.3km/h 93.3% 0.00in /  0mm 444 W/m2
09:59 49.7 °F /  9.8 °C 47.7 °F /  8.7 °C 30.25in /  1024.3hPa NNE 6.2mph /  10km/h 7mph /  11.3km/h 92.6% 0.00in /  0mm 451 W/m2
10:04 49.9 °F /  9.9 °C 48 °F /  8.9 °C 30.25in /  1024.3hPa NNE 5.9mph /  9.5km/h 7mph /  11.3km/h 93% 0.00in /  0mm 457 W/m2
10:09 50.4 °F /  10.2 °C 47.9 °F /  8.8 °C 30.25in /  1024.3hPa NNE 4.2mph /  6.8km/h 6mph /  9.7km/h 91.1% 0.00in /  0mm 464 W/m2
10:14 51.2 °F /  10.7 °C 48.7 °F /  9.3 °C 30.25in /  1024.3hPa North 4mph /  6.4km/h 5mph /  8km/h 91.1% 0.00in /  0mm 471 W/m2
10:19 51.6 °F /  10.9 °C 48.8 °F /  9.3 °C 30.25in /  1024.3hPa NNE 4.2mph /  6.8km/h 5mph /  8km/h 90% 0.00in /  0mm 474 W/m2
10:24 51.9 °F /  11.1 °C 48.9 °F /  9.4 °C 30.25in /  1024.3hPa NNE 4.7mph /  7.6km/h 5mph /  8km/h 89.6% 0.00in /  0mm 479 W/m2
10:29 52 °F /  11.1 °C 48.8 °F /  9.3 °C 30.25in /  1024.3hPa NNE 6.3mph /  10.1km/h 6mph /  9.7km/h 89% 0.00in /  0mm 483 W/m2
10:34 52.3 °F /  11.3 °C 49.2 °F /  9.6 °C 30.25in /  1024.3hPa NNE 5.2mph /  8.4km/h 8mph /  12.9km/h 89% 0.00in /  0mm 465 W/m2
10:39 52.8 °F /  11.6 °C 49.6 °F /  9.8 °C 30.25in /  1024.3hPa NNE 7mph /  11.3km/h 6.3mph /  10.1km/h 88.8% 0.00in /  0mm 463 W/m2
10:44 52.9 °F /  11.6 °C 49.6 °F /  9.8 °C 30.25in /  1024.3hPa NE 5.5mph /  8.9km/h 8mph /  12.9km/h 88.6% 0.00in /  0mm 376 W/m2
10:49 53 °F /  11.7 °C 49.6 °F /  9.8 °C 30.25in /  1024.3hPa ENE 4.7mph /  7.6km/h 7mph /  11.3km/h 88.4% 0.00in /  0mm 465 W/m2
10:54 53.4 °F /  11.9 °C 50.2 °F /  10.1 °C 30.24in /  1023.9hPa NE 4.4mph /  7.1km/h 6mph /  9.7km/h 88.6% 0.00in /  0mm 275 W/m2
10:59 54.2 °F /  12.3 °C 50.8 °F /  10.4 °C 30.24in /  1023.9hPa NNE 4.2mph /  6.8km/h 6mph /  9.7km/h 88% 0.00in /  0mm 280 W/m2
11:04 55.2 °F /  12.9 °C 51.7 °F /  10.9 °C 30.24in /  1023.9hPa NNE 4.6mph /  7.4km/h 6mph /  9.7km/h 87.8% 0.00in /  0mm 353 W/m2
11:09 55.9 °F /  13.3 °C 51.6 °F /  10.9 °C 30.24in /  1023.9hPa NNE 5.9mph /  9.5km/h 7mph /  11.3km/h 85.6% 0.00in /  0mm 294 W/m2
11:14 55.9 °F /  13.3 °C 51.6 °F /  10.9 °C 30.24in /  1023.9hPa NE 5.2mph /  8.4km/h 7mph /  11.3km/h 85.5% 0.00in /  0mm 324 W/m2
11:19 56.5 °F /  13.6 °C 52.2 °F /  11.2 °C 30.23in /  1023.6hPa NE 4.5mph /  7.2km/h 6mph /  9.7km/h 85.6% 0.00in /  0mm 279 W/m2
11:24 57.5 °F /  14.2 °C 52.9 °F /  11.6 °C 30.23in /  1023.6hPa NNE 5.8mph /  9.3km/h 5mph /  8km/h 84.5% 0.00in /  0mm 365 W/m2
11:29 57.9 °F /  14.4 °C 53.1 °F /  11.7 °C 30.23in /  1023.6hPa NNE 5.6mph /  9km/h 7mph /  11.3km/h 83.9% 0.00in /  0mm 365 W/m2
11:34 58.5 °F /  14.7 °C 53.4 °F /  11.9 °C 30.23in /  1023.6hPa NNE 5.9mph /  9.5km/h 6mph /  9.7km/h 83.2% 0.00in /  0mm 320 W/m2
11:39 58.9 °F /  14.9 °C 53.4 °F /  11.9 °C 30.22in /  1023.2hPa North 6.2mph /  10km/h 7mph /  11.3km/h 82.1% 0.00in /  0mm 454 W/m2
11:44 59.2 °F /  15.1 °C 53.6 °F /  12 °C 30.22in /  1023.2hPa NNE 4.6mph /  7.4km/h 7mph /  11.3km/h 81.6% 0.00in /  0mm 441 W/m2
11:49 60 °F /  15.6 °C 54.1 °F /  12.3 °C 30.22in /  1023.2hPa NNE 5.8mph /  9.3km/h 6mph /  9.7km/h 80.8% 0.00in /  0mm 476 W/m2
11:54 60.3 °F /  15.7 °C 54 °F /  12.2 °C 30.22in /  1023.2hPa NNE 6.5mph /  10.5km/h 7mph /  11.3km/h 79.8% 0.00in /  0mm 398 W/m2
11:59 60.3 °F /  15.7 °C 54.1 °F /  12.3 °C 30.22in /  1023.2hPa NNE 7mph /  11.3km/h 7mph /  11.3km/h 80% 0.00in /  0mm 470 W/m2
12:04 60.7 °F /  15.9 °C 54.5 °F /  12.5 °C 30.21in /  1022.9hPa NNE 5.8mph /  9.3km/h 8mph /  12.9km/h 80% 0.00in /  0mm 479 W/m2
12:09 61.1 °F /  16.2 °C 54.5 °F /  12.5 °C 30.21in /  1022.9hPa NNE 6.5mph /  10.5km/h 7mph /  11.3km/h 79.2% 0.00in /  0mm 410 W/m2
12:14 61.3 °F /  16.3 °C 54.8 °F /  12.7 °C 30.21in /  1022.9hPa NNE 6.8mph /  10.9km/h 7mph /  11.3km/h 79.2% 0.00in /  0mm 396 W/m2
12:19 61.6 °F /  16.4 °C 55 °F /  12.8 °C 30.21in /  1022.9hPa NNE 6.5mph /  10.5km/h 8mph /  12.9km/h 78.8% 0.00in /  0mm 411 W/m2
12:24 62 °F /  16.7 °C 55.2 °F /  12.9 °C 30.21in /  1022.9hPa North 6.3mph /  10.1km/h 7mph /  11.3km/h 78.6% 0.00in /  0mm 466 W/m2
12:29 62.2 °F /  16.8 °C 55.3 °F /  12.9 °C 30.21in /  1022.9hPa North 6.5mph /  10.5km/h 7mph /  11.3km/h 78% 0.00in /  0mm 408 W/m2
12:34 62.3 °F /  16.8 °C 55.4 °F /  13 °C 30.21in /  1022.9hPa NNE 5.3mph /  8.5km/h 7mph /  11.3km/h 78% 0.00in /  0mm 455 W/m2
12:39 62.9 °F /  17.2 °C 55.8 °F /  13.2 °C 30.21in /  1022.9hPa NNE 5.6mph /  9km/h 6mph /  9.7km/h 77.8% 0.00in /  0mm 444 W/m2
12:44 63.1 °F /  17.3 °C 55.8 °F /  13.2 °C 30.20in /  1022.6hPa NNE 6.5mph /  10.5km/h 7mph /  11.3km/h 77% 0.00in /  0mm 440 W/m2
12:49 63.4 °F /  17.4 °C 55.9 °F /  13.3 °C 30.20in /  1022.6hPa NNE 5.3mph /  8.5km/h 7mph /  11.3km/h 76.5% 0.00in /  0mm 430 W/m2
12:54 63.8 °F /  17.7 °C 55.6 °F /  13.1 °C 30.20in /  1022.6hPa NNE 6.9mph /  11.1km/h 7mph /  11.3km/h 74.7% 0.00in /  0mm 423 W/m2
12:59 63.9 °F /  17.7 °C 55.4 °F /  13 °C 30.19in /  1022.2hPa North 6.8mph /  10.9km/h 8mph /  12.9km/h 74% 0.00in /  0mm 373 W/m2
13:04 64 °F /  17.8 °C 55.6 °F /  13.1 °C 30.19in /  1022.2hPa NNE 6.9mph /  11.1km/h 8mph /  12.9km/h 74.2% 0.00in /  0mm 410 W/m2
13:09 64.3 °F /  17.9 °C 55.8 °F /  13.2 °C 30.19in /  1022.2hPa NNE 6.3mph /  10.1km/h 8mph /  12.9km/h 73.9% 0.00in /  0mm 403 W/m2
13:14 64.6 °F /  18.1 °C 55.8 °F /  13.2 °C 30.19in /  1022.2hPa NNE 6.1mph /  9.8km/h 7mph /  11.3km/h 73.4% 0.00in /  0mm 394 W/m2
13:19 64.8 °F /  18.2 °C 55.9 °F /  13.3 °C 30.19in /  1022.2hPa NNE 6.6mph /  10.6km/h 8mph /  12.9km/h 73.1% 0.00in /  0mm 380 W/m2
13:24 64.8 °F /  18.2 °C 55.9 °F /  13.3 °C 30.19in /  1022.2hPa NNE 6mph /  9.7km/h 8mph /  12.9km/h 72.8% 0.00in /  0mm 373 W/m2
13:29 65 °F /  18.3 °C 56.2 °F /  13.4 °C 30.19in /  1022.2hPa NNE 5.8mph /  9.3km/h 7mph /  11.3km/h 73% 0.00in /  0mm 361 W/m2
13:34 65.1 °F /  18.4 °C 56.1 °F /  13.4 °C 30.19in /  1022.2hPa North 6.1mph /  9.8km/h 6mph /  9.7km/h 72.6% 0.00in /  0mm 347 W/m2
13:39 65.1 °F /  18.4 °C 56.1 °F /  13.4 °C 30.19in /  1022.2hPa North 7.5mph /  12.1km/h 7mph /  11.3km/h 72.5% 0.00in /  0mm 334 W/m2
13:44 65 °F /  18.3 °C 55.9 °F /  13.3 °C 30.19in /  1022.2hPa North 6.6mph /  10.6km/h 9mph /  14.5km/h 72.1% 0.00in /  0mm 323 W/m2
13:49 64.9 °F /  18.3 °C 55.7 °F /  13.2 °C 30.19in /  1022.2hPa NNE 7.1mph /  11.4km/h 8mph /  12.9km/h 72% 0.00in /  0mm 312 W/m2
13:54 64.9 °F /  18.3 °C 55.6 °F /  13.1 °C 30.19in /  1022.2hPa North 7mph /  11.3km/h 8mph /  12.9km/h 72% 0.00in /  0mm 301 W/m2
13:59 64.7 °F /  18.2 °C 55.5 °F /  13.1 °C 30.19in /  1022.2hPa North 6.2mph /  10km/h 8mph /  12.9km/h 72.1% 0.00in /  0mm 284 W/m2
14:04 64.6 °F /  18.1 °C 55.7 °F /  13.2 °C 30.19in /  1022.2hPa North 6.3mph /  10.1km/h 7mph /  11.3km/h 72.9% 0.00in /  0mm 268 W/m2
14:09 64.6 °F /  18.1 °C 55.6 °F /  13.1 °C 30.18in /  1021.9hPa North 6.8mph /  10.9km/h 7mph /  11.3km/h 72.6% 0.00in /  0mm 261 W/m2
14:14 64.6 °F /  18.1 °C 55.5 °F /  13.1 °C 30.18in /  1021.9hPa North 7.4mph /  11.9km/h 7mph /  11.3km/h 72.5% 0.00in /  0mm 247 W/m2
14:19 64.6 °F /  18.1 °C 55.6 °F /  13.1 °C 30.18in /  1021.9hPa North 8.3mph /  13.4km/h 8mph /  12.9km/h 72.8% 0.00in /  0mm 236 W/m2
14:24 64.6 °F /  18.1 °C 55.7 °F /  13.2 °C 30.18in /  1021.9hPa North 6.6mph /  10.6km/h 10mph /  16.1km/h 73% 0.00in /  0mm 225 W/m2
14:29 64.6 °F /  18.1 °C 55.7 °F /  13.2 °C 30.18in /  1021.9hPa North 5.2mph /  8.4km/h 7mph /  11.3km/h 73% 0.00in /  0mm 213 W/m2
14:34 64.7 °F /  18.2 °C 55.8 °F /  13.2 °C 30.18in /  1021.9hPa North 5.6mph /  9km/h 6mph /  9.7km/h 73% 0.00in /  0mm 199 W/m2
14:39 64.5 °F /  18.1 °C 55.7 °F /  13.2 °C 30.18in /  1021.9hPa North 7mph /  11.3km/h 6mph /  9.7km/h 73% 0.00in /  0mm 187 W/m2
14:44 64.4 °F /  18 °C 55.6 °F /  13.1 °C 30.18in /  1021.9hPa North 6.1mph /  9.8km/h 8mph /  12.9km/h 73% 0.00in /  0mm 173 W/m2
14:49 64.1 °F /  17.8 °C 55.3 °F /  12.9 °C 30.18in /  1021.9hPa North 6.4mph /  10.3km/h 7mph /  11.3km/h 73% 0.00in /  0mm 160 W/m2
14:54 64 °F /  17.8 °C 55.1 °F /  12.8 °C 30.18in /  1021.9hPa North 6.5mph /  10.5km/h 7mph /  11.3km/h 73% 0.00in /  0mm 147 W/m2
14:59 63.7 °F /  17.6 °C 55.1 °F /  12.8 °C 30.18in /  1021.9hPa North 5mph /  8km/h 8mph /  12.9km/h 73.6% 0.00in /  0mm 135 W/m2
15:04 63.4 °F /  17.4 °C 55 °F /  12.8 °C 30.18in /  1021.9hPa North 8.2mph /  13.2km/h 7mph /  11.3km/h 74% 0.00in /  0mm 121 W/m2
15:09 63.1 °F /  17.3 °C 54.8 °F /  12.7 °C 30.18in /  1021.9hPa North 7.9mph /  12.7km/h 11mph /  17.7km/h 74.3% 0.00in /  0mm 109 W/m2
15:14 62.9 °F /  17.2 °C 54.8 °F /  12.7 °C 30.18in /  1021.9hPa North 6.1mph /  9.8km/h 8mph /  12.9km/h 75% 0.00in /  0mm 98 W/m2
15:19 62.6 °F /  17 °C 54.7 °F /  12.6 °C 30.18in /  1021.9hPa North 8.1mph /  13km/h 6mph /  9.7km/h 75.2% 0.00in /  0mm 85 W/m2
15:24 62.4 °F /  16.9 °C 55.1 °F /  12.8 °C 30.18in /  1021.9hPa North 7.2mph /  11.6km/h 10mph /  16.1km/h 76.9% 0.00in /  0mm 75 W/m2
15:29 62.3 °F /  16.8 °C 55 °F /  12.8 °C 30.18in /  1021.9hPa North 7.2mph /  11.6km/h 9mph /  14.5km/h 77% 0.00in /  0mm 65 W/m2
15:34 62 °F /  16.7 °C 54.9 °F /  12.7 °C 30.18in /  1021.9hPa North 7.1mph /  11.4km/h 9mph /  14.5km/h 77.6% 0.00in /  0mm 56 W/m2
15:39 61.7 °F /  16.5 °C 54.7 °F /  12.6 °C 30.18in /  1021.9hPa North 7.3mph /  11.7km/h 8mph /  12.9km/h 78% 0.00in /  0mm 47 W/m2
15:44 61.3 °F /  16.3 °C 54.5 °F /  12.5 °C 30.18in /  1021.9hPa North 8.4mph /  13.5km/h 8mph /  12.9km/h 78.5% 0.00in /  0mm 39 W/m2
15:49 61 °F /  16.1 °C 54.4 °F /  12.4 °C 30.18in /  1021.9hPa North 7.8mph /  12.6km/h 10mph /  16.1km/h 79% 0.00in /  0mm 32 W/m2
15:54 60.7 °F /  15.9 °C 54.2 °F /  12.3 °C 30.18in /  1021.9hPa North 6.9mph /  11.1km/h 8mph /  12.9km/h 79.1% 0.00in /  0mm 25 W/m2
15:59 60.4 °F /  15.8 °C 54.2 °F /  12.3 °C 30.18in /  1021.9hPa North 7.2mph /  11.6km/h 7mph /  11.3km/h 80% 0.00in /  0mm 20 W/m2
16:04 60.2 °F /  15.7 °C 54 °F /  12.2 °C 30.18in /  1021.9hPa North 6.2mph /  10km/h 8mph /  12.9km/h 80% 0.00in /  0mm 14 W/m2
16:09 59.8 °F /  15.4 °C 53.9 °F /  12.2 °C 30.18in /  1021.9hPa North 5.2mph /  8.4km/h 9mph /  14.5km/h 80.6% 0.00in /  0mm 11 W/m2
16:14 59.5 °F /  15.3 °C 53.7 °F /  12.1 °C 30.18in /  1021.9hPa NNW 4.5mph /  7.2km/h 7mph /  11.3km/h 81% 0.00in /  0mm 8 W/m2
16:19 59.2 °F /  15.1 °C 53.6 °F /  12 °C 30.18in /  1021.9hPa North 7.7mph /  12.4km/h 5.4mph /  8.7km/h 81.6% 0.00in /  0mm 4 W/m2
16:24 58.9 °F /  14.9 °C 53.8 °F /  12.1 °C 30.19in /  1022.2hPa North 6.7mph /  10.8km/h 9mph /  14.5km/h 83% 0.00in /  0mm 2 W/m2
16:29 58.6 °F /  14.8 °C 53.6 °F /  12 °C 30.19in /  1022.2hPa North 6.5mph /  10.5km/h 8mph /  12.9km/h 83.1% 0.00in /  0mm 1 W/m2
16:34 58.4 °F /  14.7 °C 53.6 °F /  12 °C 30.19in /  1022.2hPa North 6.7mph /  10.8km/h 7mph /  11.3km/h 84% 0.00in /  0mm 0 W/m2
16:39 58.1 °F /  14.5 °C 53.3 °F /  11.8 °C 30.19in /  1022.2hPa North 6.3mph /  10.1km/h 8mph /  12.9km/h 84% 0.00in /  0mm 0 W/m2
16:44 57.9 °F /  14.4 °C 53.1 °F /  11.7 °C 30.19in /  1022.2hPa NNW 4.4mph /  7.1km/h 7mph /  11.3km/h 84% 0.00in /  0mm 0 W/m2
16:49 57.7 °F /  14.3 °C 53 °F /  11.7 °C 30.19in /  1022.2hPa NNW 2.3mph /  3.7km/h 5mph /  8km/h 84.3% 0.00in /  0mm 0 W/m2
16:54 57.4 °F /  14.1 °C 52.9 °F /  11.6 °C 30.19in /  1022.2hPa WNW 2.4mph /  3.9km/h 3mph /  4.8km/h 85% 0.00in /  0mm 0 W/m2
16:59 56.8 °F /  13.8 °C 52.4 °F /  11.3 °C 30.20in /  1022.6hPa SSW 2.3mph /  3.7km/h 4mph /  6.4km/h 85% 0.00in /  0mm 0 W/m2
17:04 56.5 °F /  13.6 °C 52 °F /  11.1 °C 30.20in /  1022.6hPa SSW 1.1mph /  1.8km/h 3mph /  4.8km/h 85% 0.00in /  0mm 0 W/m2
17:09 56.2 °F /  13.4 °C 51.8 °F /  11 °C 30.20in /  1022.6hPa West 0.3mph /  0.5km/h 1mph /  1.6km/h 85.1% 0.00in /  0mm 0 W/m2
17:14 55.8 °F /  13.2 °C 51.7 °F /  10.9 °C 30.20in /  1022.6hPa NNW 0.8mph /  1.3km/h 1mph /  1.6km/h 86% 0.00in /  0mm 0 W/m2
17:19 55.4 °F /  13 °C 51.3 °F /  10.7 °C 30.20in /  1022.6hPa West 1.8mph /  2.9km/h 2mph /  3.2km/h 86% 0.00in /  0mm 0 W/m2
17:24 55 °F /  12.8 °C 51.2 °F /  10.7 °C 30.20in /  1022.6hPa WSW 0.9mph /  1.4km/h 2mph /  3.2km/h 87.2% 0.00in /  0mm 0 W/m2
17:29 54.6 °F /  12.6 °C 51.1 °F /  10.6 °C 30.20in /  1022.6hPa WSW 1.7mph /  2.7km/h 1.6mph /  2.6km/h 88% 0.00in /  0mm 0 W/m2
17:34 54.2 °F /  12.3 °C 50.9 °F /  10.5 °C 30.21in /  1022.9hPa WSW 2mph /  3.2km/h 3mph /  4.8km/h 88.3% 0.00in /  0mm 0 W/m2
17:39 53.9 °F /  12.2 °C 50.8 °F /  10.4 °C 30.21in /  1022.9hPa WSW 1.4mph /  2.3km/h 3mph /  4.8km/h 89% 0.00in /  0mm 0 W/m2
17:44 53.5 °F /  11.9 °C 50.3 °F /  10.2 °C 30.21in /  1022.9hPa WSW 2mph /  3.2km/h 2mph /  3.2km/h 89% 0.00in /  0mm 0 W/m2
17:49 53.1 °F /  11.7 °C 50.1 °F /  10.1 °C 30.21in /  1022.9hPa West 1.2mph /  1.9km/h 2mph /  3.2km/h 89.3% 0.00in /  0mm 0 W/m2
17:54 52.8 °F /  11.6 °C 49.9 °F /  9.9 °C 30.21in /  1022.9hPa West 2.1mph /  3.4km/h 2mph /  3.2km/h 90% 0.00in /  0mm 0 W/m2
17:59 52.4 °F /  11.3 °C 49.6 °F /  9.8 °C 30.21in /  1022.9hPa WSW 1.7mph /  2.7km/h 2mph /  3.2km/h 90% 0.00in /  0mm 0 W/m2
18:04 52.1 °F /  11.2 °C 49.4 °F /  9.7 °C 30.21in /  1022.9hPa West 1.7mph /  2.7km/h 2mph /  3.2km/h 90.6% 0.00in /  0mm 0 W/m2
18:09 51.7 °F /  10.9 °C 49.2 °F /  9.6 °C 30.21in /  1022.9hPa West 2.5mph /  4km/h 2mph /  3.2km/h 91% 0.00in /  0mm 0 W/m2
18:14 51.4 °F /  10.8 °C 48.8 °F /  9.3 °C 30.21in /  1022.9hPa WSW 3mph /  4.8km/h 3mph /  4.8km/h 91% 0.00in /  0mm 0 W/m2
18:19 51.1 °F /  10.6 °C 48.5 °F /  9.2 °C 30.21in /  1022.9hPa WSW 3mph /  4.8km/h 3mph /  4.8km/h 91% 0.00in /  0mm 0 W/m2
18:24 50.6 °F /  10.3 °C 48.1 °F /  8.9 °C 30.21in /  1022.9hPa West 4.2mph /  6.8km/h 5mph /  8km/h 91% 0.00in /  0mm 0 W/m2
18:29 50.2 °F /  10.1 °C 47.8 °F /  8.8 °C 30.21in /  1022.9hPa West 3.2mph /  5.1km/h 5mph /  8km/h 91.3% 0.00in /  0mm 0 W/m2
18:34 49.8 °F /  9.9 °C 47.3 °F /  8.5 °C 30.21in /  1022.9hPa WSW 2.2mph /  3.5km/h 4mph /  6.4km/h 91.1% 0.00in /  0mm 0 W/m2
18:39 49.5 °F /  9.7 °C 47.2 °F /  8.4 °C 30.21in /  1022.9hPa WSW 2.2mph /  3.5km/h 2mph /  3.2km/h 91.9% 0.00in /  0mm 0 W/m2
18:44 49.2 °F /  9.6 °C 47.2 °F /  8.4 °C 30.21in /  1022.9hPa WNW 2mph /  3.2km/h 2mph /  3.2km/h 93% 0.00in /  0mm 0 W/m2
18:49 48.9 °F /  9.4 °C 47.2 °F /  8.4 °C 30.22in /  1023.2hPa NW 2mph /  3.2km/h 2mph /  3.2km/h 93.8% 0.00in /  0mm 0 W/m2
18:54 48.8 °F /  9.3 °C 47.2 °F /  8.4 °C 30.22in /  1023.2hPa NW 2.2mph /  3.5km/h 3mph /  4.8km/h 94% 0.00in /  0mm 0 W/m2
18:59 48.6 °F /  9.2 °C 47.2 °F /  8.4 °C 30.22in /  1023.2hPa WNW 2.1mph /  3.4km/h 2mph /  3.2km/h 94.8% 0.00in /  0mm 0 W/m2
19:04 48.5 °F /  9.2 °C 46.9 °F /  8.3 °C 30.22in /  1023.2hPa West 1.7mph /  2.7km/h 2mph /  3.2km/h 94.5% 0.00in /  0mm 0 W/m2
19:09 48.1 °F /  8.9 °C 46.5 °F /  8.1 °C 30.22in /  1023.2hPa West 2.1mph /  3.4km/h 2mph /  3.2km/h 94% 0.00in /  0mm 0 W/m2
19:14 47.8 °F /  8.8 °C 46.1 °F /  7.8 °C 30.22in /  1023.2hPa WNW 1.4mph /  2.3km/h 2mph /  3.2km/h 94% 0.00in /  0mm 0 W/m2
19:19 47.5 °F /  8.6 °C 46 °F /  7.8 °C 30.22in /  1023.2hPa WNW 1.5mph /  2.4km/h 2mph /  3.2km/h 94.8% 0.00in /  0mm 0 W/m2
19:24 47.3 °F /  8.5 °C 45.9 °F /  7.7 °C 30.22in /  1023.2hPa WSW 1.7mph /  2.7km/h 2mph /  3.2km/h 95% 0.00in /  0mm 0 W/m2
19:29 47 °F /  8.3 °C 45.7 °F /  7.6 °C 30.22in /  1023.2hPa WSW 2.3mph /  3.7km/h 2mph /  3.2km/h 95% 0.00in /  0mm 0 W/m2
19:34 46.8 °F /  8.2 °C 45.6 °F /  7.6 °C 30.22in /  1023.2hPa West 2.5mph /  4km/h 3mph /  4.8km/h 95.3% 0.00in /  0mm 0 W/m2
19:39 46.7 °F /  8.2 °C 45.7 °F /  7.6 °C 30.22in /  1023.2hPa West 2.2mph /  3.5km/h 3mph /  4.8km/h 96.2% 0.00in /  0mm 0 W/m2
19:44 46.6 °F /  8.1 °C 46 °F /  7.8 °C 30.22in /  1023.2hPa West 2.2mph /  3.5km/h 2mph /  3.2km/h 97.9% 0.00in /  0mm 0 W/m2
19:49 46.6 °F /  8.1 °C 46 °F /  7.8 °C 30.22in /  1023.2hPa NW 0.8mph /  1.3km/h 2mph /  3.2km/h 98% 0.00in /  0mm 0 W/m2
19:54 46.5 °F /  8.1 °C 45.6 °F /  7.6 °C 30.23in /  1023.6hPa Calm   2mph /  3.2km/h 96.7% 0.00in /  0mm 0 W/m2
19:59 46.3 °F /  7.9 °C 45.2 °F /  7.3 °C 30.23in /  1023.6hPa Calm     96% 0.00in /  0mm 0 W/m2
20:04 46 °F /  7.8 °C 45 °F /  7.2 °C 30.23in /  1023.6hPa Calm     96% 0.00in /  0mm 0 W/m2
20:09 45.9 °F /  7.7 °C 44.8 °F /  7.1 °C 30.23in /  1023.6hPa North 0.3mph /  0.5km/h   96% 0.00in /  0mm 0 W/m2
20:14 45.6 °F /  7.6 °C 45 °F /  7.2 °C 30.23in /  1023.6hPa North 1.3mph /  2.1km/h 2mph /  3.2km/h 97.6% 0.00in /  0mm 0 W/m2
20:19 45.4 °F /  7.4 °C 44.9 °F /  7.2 °C 30.23in /  1023.6hPa NNW 1mph /  1.6km/h 2mph /  3.2km/h 98% 0.00in /  0mm 0 W/m2
20:24 45.2 °F /  7.3 °C 44.5 °F /  6.9 °C 30.23in /  1023.6hPa WNW 1.2mph /  1.9km/h 1mph /  1.6km/h 97.4% 0.00in /  0mm 0 W/m2
20:29 44.9 °F /  7.2 °C 43.9 °F /  6.6 °C 30.23in /  1023.6hPa WNW 0.8mph /  1.3km/h 2mph /  3.2km/h 96% 0.00in /  0mm 0 W/m2
20:34 44.6 °F /  7 °C 43.5 °F /  6.4 °C 30.23in /  1023.6hPa NW 1.3mph /  2.1km/h 2mph /  3.2km/h 96% 0.00in /  0mm 0 W/m2
20:39 44.3 °F /  6.8 °C 43.2 °F /  6.2 °C 30.23in /  1023.6hPa West 3.1mph /  5km/h 2.5mph /  4km/h 96% 0.00in /  0mm 0 W/m2
20:44 43.9 °F /  6.6 °C 42.8 °F /  6 °C 30.23in /  1023.6hPa West 4mph /  6.4km/h 5mph /  8km/h 96% 0.00in /  0mm 0 W/m2
20:49 43.6 °F /  6.4 °C 42.9 °F /  6.1 °C 30.23in /  1023.6hPa WNW 3.6mph /  5.8km/h 5mph /  8km/h 97.3% 0.00in /  0mm 0 W/m2
20:54 43.5 °F /  6.4 °C 43.2 °F /  6.2 °C 30.23in /  1023.6hPa WNW 3.5mph /  5.6km/h 5mph /  8km/h 98.6% 0.00in /  0mm 0 W/m2
20:59 43.6 °F /  6.4 °C 43.3 °F /  6.3 °C 30.23in /  1023.6hPa WNW 3.2mph /  5.1km/h 4mph /  6.4km/h 99% 0.00in /  0mm 0 W/m2
21:04 43.5 °F /  6.4 °C 43.3 °F /  6.3 °C 30.23in /  1023.6hPa WNW 2.8mph /  4.5km/h 4mph /  6.4km/h 99% 0.00in /  0mm 0 W/m2
21:09 43.6 °F /  6.4 °C 43.3 °F /  6.3 °C 30.23in /  1023.6hPa NW 3.3mph /  5.3km/h 4mph /  6.4km/h 99% 0.00in /  0mm 0 W/m2
21:14 43.6 °F /  6.4 °C 43.3 °F /  6.3 °C 30.23in /  1023.6hPa WNW 1.8mph /  2.9km/h 3mph /  4.8km/h 99% 0.00in /  0mm 0 W/m2
21:19 43.3 °F /  6.3 °C 43 °F /  6.1 °C 30.23in /  1023.6hPa West 1.7mph /  2.7km/h 2mph /  3.2km/h 98.7% 0.00in /  0mm 0 W/m2
21:24 43.1 °F /  6.2 °C 42.6 °F /  5.9 °C 30.23in /  1023.6hPa WNW 1mph /  1.6km/h 2mph /  3.2km/h 98% 0.00in /  0mm 0 W/m2
21:29 42.9 °F /  6.1 °C 42.4 °F /  5.8 °C 30.23in /  1023.6hPa NNW 1.5mph /  2.4km/h 2mph /  3.2km/h 98% 0.00in /  0mm 0 W/m2
21:34 42.7 °F /  5.9 °C 42.4 °F /  5.8 °C 30.23in /  1023.6hPa NNW 0.5mph /  0.8km/h 2mph /  3.2km/h 98.7% 0.00in /  0mm 0 W/m2
21:39 42.5 °F /  5.8 °C 42.3 °F /  5.7 °C 30.23in /  1023.6hPa NNW 1.1mph /  1.8km/h 1mph /  1.6km/h 99% 0.00in /  0mm 0 W/m2
21:44 42.3 °F /  5.7 °C 42 °F /  5.6 °C 30.23in /  1023.6hPa NNW 0.5mph /  0.8km/h 1mph /  1.6km/h 98.5% 0.00in /  0mm 0 W/m2
21:49 42.1 °F /  5.6 °C 41.8 °F /  5.4 °C 30.23in /  1023.6hPa NW 1.4mph /  2.3km/h 1mph /  1.6km/h 98.8% 0.00in /  0mm 0 W/m2
21:54 41.9 °F /  5.5 °C 41.6 °F /  5.3 °C 30.23in /  1023.6hPa NW 0.9mph /  1.4km/h 2mph /  3.2km/h 99% 0.00in /  0mm 0 W/m2
21:59 41.8 °F /  5.4 °C 41.5 °F /  5.3 °C 30.23in /  1023.6hPa NNW 0.3mph /  0.5km/h 1mph /  1.6km/h 99% 0.00in /  0mm 0 W/m2
22:04 41.5 °F /  5.3 °C 41.3 °F /  5.2 °C 30.23in /  1023.6hPa WNW 1mph /  1.6km/h 1.8mph /  2.9km/h 99% 0.00in /  0mm 0 W/m2
22:09 41.4 °F /  5.2 °C 41.1 °F /  5.1 °C 30.24in /  1023.9hPa West 2.1mph /  3.4km/h 2mph /  3.2km/h 99% 0.00in /  0mm 0 W/m2
22:14 41.2 °F /  5.1 °C 40.9 °F /  4.9 °C 30.23in /  1023.6hPa WNW 1.6mph /  2.6km/h 2mph /  3.2km/h 99% 0.00in /  0mm 0 W/m2
22:19 41 °F /  5 °C 40.7 °F /  4.8 °C 30.23in /  1023.6hPa NW 0.4mph /  0.6km/h 2mph /  3.2km/h 99% 0.00in /  0mm 0 W/m2
22:24 40.8 °F /  4.9 °C 40.6 °F /  4.8 °C 30.24in /  1023.9hPa WNW 1mph /  1.6km/h 1mph /  1.6km/h 99% 0.00in /  0mm 0 W/m2
22:29 40.7 °F /  4.8 °C 40.5 °F /  4.7 °C 30.24in /  1023.9hPa WNW 1.2mph /  1.9km/h 2mph /  3.2km/h 99% 0.00in /  0mm 0 W/m2
22:34 40.6 °F /  4.8 °C 40.4 °F /  4.7 °C 30.24in /  1023.9hPa WNW 1.4mph /  2.3km/h 1mph /  1.6km/h 99% 0.00in /  0mm 0 W/m2
22:39 40.6 °F /  4.8 °C 40.4 °F /  4.7 °C 30.24in /  1023.9hPa WNW 0.9mph /  1.4km/h 2mph /  3.2km/h 99% 0.00in /  0mm 0 W/m2
22:44 40.6 °F /  4.8 °C 40.4 °F /  4.7 °C 30.24in /  1023.9hPa West 0.9mph /  1.4km/h 2mph /  3.2km/h 99% 0.00in /  0mm 0 W/m2
22:49 40.5 °F /  4.7 °C 40.3 °F /  4.6 °C 30.24in /  1023.9hPa Calm   1mph /  1.6km/h 99% 0.00in /  0mm 0 W/m2
22:54 40.3 °F /  4.6 °C 40 °F /  4.4 °C 30.24in /  1023.9hPa West 0.8mph /  1.3km/h 0.2mph /  0.3km/h 99% 0.00in /  0mm 0 W/m2
22:59 40.1 °F /  4.5 °C 39.8 °F /  4.3 °C 30.24in /  1023.9hPa WNW 0.8mph /  1.3km/h 2mph /  3.2km/h 99% 0.00in /  0mm 0 W/m2
23:04 40 °F /  4.4 °C 39.7 °F /  4.3 °C 30.24in /  1023.9hPa NNW 1.3mph /  2.1km/h 2mph /  3.2km/h 99% 0.00in /  0mm 0 W/m2
23:09 39.8 °F /  4.3 °C 39.6 °F /  4.2 °C 30.24in /  1023.9hPa NW 2mph /  3.2km/h 2mph /  3.2km/h 99% 0.00in /  0mm 0 W/m2
23:14 39.7 °F /  4.3 °C 39.4 °F /  4.1 °C 30.24in /  1023.9hPa West 2.6mph /  4.2km/h 2mph /  3.2km/h 99% 0.00in /  0mm 0 W/m2
23:19 39.4 °F /  4.1 °C 39.1 °F /  3.9 °C 30.24in /  1023.9hPa West 3.4mph /  5.5km/h 3.4mph /  5.5km/h 99% 0.00in /  0mm 0 W/m2
23:24 39.2 °F /  4 °C 38.9 °F /  3.8 °C 30.24in /  1023.9hPa West 3.7mph /  6km/h 5mph /  8km/h 99% 0.00in /  0mm 0 W/m2
23:29 39 °F /  3.9 °C 38.8 °F /  3.8 °C 30.24in /  1023.9hPa West 2.3mph /  3.7km/h 4mph /  6.4km/h 99% 0.00in /  0mm 0 W/m2
23:34 39 °F /  3.9 °C 38.8 °F /  3.8 °C 30.24in /  1023.9hPa West 2.8mph /  4.5km/h 3mph /  4.8km/h 99% 0.00in /  0mm 0 W/m2
23:39 39 °F /  3.9 °C 38.8 °F /  3.8 °C 30.24in /  1023.9hPa West 3.3mph /  5.3km/h 3mph /  4.8km/h 99% 0.00in /  0mm 0 W/m2
23:44 39.1 °F /  3.9 °C 38.8 °F /  3.8 °C 30.24in /  1023.9hPa West 3.4mph /  5.5km/h 3mph /  4.8km/h 99% 0.00in /  0mm 0 W/m2
23:49 39.3 °F /  4.1 °C 39 °F /  3.9 °C 30.24in /  1023.9hPa West 2.9mph /  4.7km/h 3mph /  4.8km/h 99% 0.00in /  0mm 0 W/m2
23:54 39.5 °F /  4.2 °C 39.2 °F /  4 °C 30.24in /  1023.9hPa West 3.5mph /  5.6km/h 4mph /  6.4km/h 99% 0.00in /  0mm 0 W/m2
23:59 39.6 °F /  4.2 °C 39.4 °F /  4.1 °C 30.24in /  1023.9hPa West 3.4mph /  5.5km/h 4mph /  6.4km/h 99% 0.00in /  0mm 0 W/m2
Knjazevac, Serbia
Compliments of Weather Underground - 4 mb